sensor_id;sensor_type;location;lat;lon;timestamp;pressure;altitude;pressure_sealevel;temperature;humidity
3544;BME280;1786;52.870;9.578;2024-03-25T00:01:27;99220.63;;;13.44;60.67
3544;BME280;1786;52.870;9.578;2024-03-25T00:03:53;99220.97;;;13.03;61.66
3544;BME280;1786;52.870;9.578;2024-03-25T00:06:19;99228.94;;;13.31;61.29
3544;BME280;1786;52.870;9.578;2024-03-25T00:08:45;99220.81;;;13.32;61.24
3544;BME280;1786;52.870;9.578;2024-03-25T00:11:10;99228.59;;;13.44;60.84
3544;BME280;1786;52.870;9.578;2024-03-25T00:13:36;99233.50;;;13.38;61.13
3544;BME280;1786;52.870;9.578;2024-03-25T00:16:02;99240.09;;;13.34;61.14
3544;BME280;1786;52.870;9.578;2024-03-25T00:18:27;99227.19;;;12.74;61.72
3544;BME280;1786;52.870;9.578;2024-03-25T00:20:53;99235.31;;;12.73;62.15
3544;BME280;1786;52.870;9.578;2024-03-25T00:23:19;99231.19;;;12.88;62.18
3544;BME280;1786;52.870;9.578;2024-03-25T00:25:45;99233.94;;;12.96;61.24
3544;BME280;1786;52.870;9.578;2024-03-25T00:28:11;99235.44;;;13.09;61.54
3544;BME280;1786;52.870;9.578;2024-03-25T00:30:37;99245.78;;;13.02;61.58
3544;BME280;1786;52.870;9.578;2024-03-25T00:33:03;99235.38;;;12.44;62.76
3544;BME280;1786;52.870;9.578;2024-03-25T00:35:28;99248.50;;;12.36;62.90
3544;BME280;1786;52.870;9.578;2024-03-25T00:37:54;99253.97;;;12.81;62.07
3544;BME280;1786;52.870;9.578;2024-03-25T00:40:20;99251.22;;;13.38;60.96
3544;BME280;1786;52.870;9.578;2024-03-25T00:42:46;99257.44;;;13.56;60.60
3544;BME280;1786;52.870;9.578;2024-03-25T00:45:13;99263.19;;;13.70;60.06
3544;BME280;1786;52.870;9.578;2024-03-25T00:47:38;99264.56;;;13.56;60.45
3544;BME280;1786;52.870;9.578;2024-03-25T00:50:05;99262.66;;;13.48;60.05
3544;BME280;1786;52.870;9.578;2024-03-25T00:52:30;99256.66;;;13.09;60.45
3544;BME280;1786;52.870;9.578;2024-03-25T00:54:57;99273.81;;;13.05;60.43
3544;BME280;1786;52.870;9.578;2024-03-25T00:57:22;99265.34;;;13.01;61.13
3544;BME280;1786;52.870;9.578;2024-03-25T00:59:48;99270.88;;;12.80;60.95
3544;BME280;1786;52.870;9.578;2024-03-25T01:02:14;99269.91;;;12.52;62.17
3544;BME280;1786;52.870;9.578;2024-03-25T01:04:40;99268.75;;;12.84;61.36
3544;BME280;1786;52.870;9.578;2024-03-25T01:07:05;99271.88;;;13.07;60.65
3544;BME280;1786;52.870;9.578;2024-03-25T01:09:31;99274.94;;;13.02;60.38
3544;BME280;1786;52.870;9.578;2024-03-25T01:11:57;99275.16;;;12.81;60.92
3544;BME280;1786;52.870;9.578;2024-03-25T01:14:23;99277.38;;;12.95;60.99
3544;BME280;1786;52.870;9.578;2024-03-25T01:16:48;99284.03;;;12.43;61.68
3544;BME280;1786;52.870;9.578;2024-03-25T01:19:14;99280.81;;;12.59;61.54
3544;BME280;1786;52.870;9.578;2024-03-25T01:21:40;99279.56;;;12.53;61.79
3544;BME280;1786;52.870;9.578;2024-03-25T01:24:05;99277.44;;;12.66;61.49
3544;BME280;1786;52.870;9.578;2024-03-25T01:26:31;99282.13;;;12.82;61.07
3544;BME280;1786;52.870;9.578;2024-03-25T01:28:57;99287.81;;;12.40;62.21
3544;BME280;1786;52.870;9.578;2024-03-25T01:31:22;99286.38;;;12.55;61.86
3544;BME280;1786;52.870;9.578;2024-03-25T01:33:48;99286.28;;;12.38;62.46
3544;BME280;1786;52.870;9.578;2024-03-25T01:36:14;99293.94;;;12.50;62.00
3544;BME280;1786;52.870;9.578;2024-03-25T01:38:43;99295.88;;;12.48;61.83
3544;BME280;1786;52.870;9.578;2024-03-25T01:41:10;99296.16;;;12.45;61.66
3544;BME280;1786;52.870;9.578;2024-03-25T01:43:37;99293.94;;;12.50;61.26
3544;BME280;1786;52.870;9.578;2024-03-25T01:46:03;99309.13;;;12.39;61.70
3544;BME280;1786;52.870;9.578;2024-03-25T01:48:28;99316.19;;;12.67;61.70
3544;BME280;1786;52.870;9.578;2024-03-25T01:50:55;99311.91;;;13.13;60.28
3544;BME280;1786;52.870;9.578;2024-03-25T01:53:22;99310.03;;;12.86;61.11
3544;BME280;1786;52.870;9.578;2024-03-25T01:55:51;99314.41;;;13.15;60.34
3544;BME280;1786;52.870;9.578;2024-03-25T01:58:19;99310.78;;;13.16;60.04
3544;BME280;1786;52.870;9.578;2024-03-25T02:00:45;99310.16;;;12.85;60.86
3544;BME280;1786;52.870;9.578;2024-03-25T02:03:11;99315.16;;;13.45;59.68
3544;BME280;1786;52.870;9.578;2024-03-25T02:05:37;99315.19;;;13.25;59.84
3544;BME280;1786;52.870;9.578;2024-03-25T02:08:03;99318.84;;;13.24;59.63
3544;BME280;1786;52.870;9.578;2024-03-25T02:10:29;99313.69;;;12.85;60.69
3544;BME280;1786;52.870;9.578;2024-03-25T02:12:55;99326.94;;;13.23;59.97
3544;BME280;1786;52.870;9.578;2024-03-25T02:15:21;99327.59;;;13.44;59.63
3544;BME280;1786;52.870;9.578;2024-03-25T02:17:47;99325.72;;;13.17;60.07
3544;BME280;1786;52.870;9.578;2024-03-25T02:20:12;99327.84;;;13.04;59.76
3544;BME280;1786;52.870;9.578;2024-03-25T02:22:41;99338.47;;;12.94;60.05
3544;BME280;1786;52.870;9.578;2024-03-25T02:25:08;99330.97;;;12.80;59.97
3544;BME280;1786;52.870;9.578;2024-03-25T02:27:36;99336.16;;;12.62;60.35
3544;BME280;1786;52.870;9.578;2024-03-25T02:30:08;99336.03;;;12.15;61.40
3544;BME280;1786;52.870;9.578;2024-03-25T02:32:35;99342.44;;;12.02;61.86
3544;BME280;1786;52.870;9.578;2024-03-25T02:35:03;99341.31;;;12.24;61.12
3544;BME280;1786;52.870;9.578;2024-03-25T02:37:30;99340.47;;;12.24;61.11
3544;BME280;1786;52.870;9.578;2024-03-25T02:39:58;99338.81;;;12.23;61.47
3544;BME280;1786;52.870;9.578;2024-03-25T02:42:28;99351.06;;;12.24;61.26
3544;BME280;1786;52.870;9.578;2024-03-25T02:44:55;99351.63;;;12.37;61.00
3544;BME280;1786;52.870;9.578;2024-03-25T02:47:21;99352.78;;;12.25;61.08
3544;BME280;1786;52.870;9.578;2024-03-25T02:49:47;99354.22;;;11.88;62.27
3544;BME280;1786;52.870;9.578;2024-03-25T02:52:13;99355.25;;;12.17;62.06
3544;BME280;1786;52.870;9.578;2024-03-25T02:54:39;99357.22;;;12.15;62.11
3544;BME280;1786;52.870;9.578;2024-03-25T02:57:04;99361.97;;;12.50;61.03
3544;BME280;1786;52.870;9.578;2024-03-25T02:59:30;99366.13;;;12.62;61.12
3544;BME280;1786;52.870;9.578;2024-03-25T03:01:56;99361.63;;;13.02;60.42
3544;BME280;1786;52.870;9.578;2024-03-25T03:04:22;99361.72;;;13.29;59.69
3544;BME280;1786;52.870;9.578;2024-03-25T03:06:48;99367.38;;;12.87;61.06
3544;BME280;1786;52.870;9.578;2024-03-25T03:09:13;99375.91;;;12.71;60.98
3544;BME280;1786;52.870;9.578;2024-03-25T03:11:39;99374.38;;;12.69;61.28
3544;BME280;1786;52.870;9.578;2024-03-25T03:14:05;99383.31;;;12.58;61.59
3544;BME280;1786;52.870;9.578;2024-03-25T03:16:30;99386.22;;;12.84;61.14
3544;BME280;1786;52.870;9.578;2024-03-25T03:18:56;99384.91;;;13.08;60.30
3544;BME280;1786;52.870;9.578;2024-03-25T03:21:21;99399.47;;;12.84;60.18
3544;BME280;1786;52.870;9.578;2024-03-25T03:23:47;99392.63;;;12.72;60.75
3544;BME280;1786;52.870;9.578;2024-03-25T03:26:13;99391.78;;;13.01;59.71
3544;BME280;1786;52.870;9.578;2024-03-25T03:28:40;99397.50;;;12.86;60.11
3544;BME280;1786;52.870;9.578;2024-03-25T03:31:06;99407.53;;;12.92;59.57
3544;BME280;1786;52.870;9.578;2024-03-25T03:33:31;99407.84;;;12.80;60.04
3544;BME280;1786;52.870;9.578;2024-03-25T03:35:57;99415.09;;;12.87;59.58
3544;BME280;1786;52.870;9.578;2024-03-25T03:38:23;99412.44;;;12.97;59.71
3544;BME280;1786;52.870;9.578;2024-03-25T03:40:59;99417.44;;;13.10;59.66
3544;BME280;1786;52.870;9.578;2024-03-25T03:43:25;99418.81;;;13.14;59.17
3544;BME280;1786;52.870;9.578;2024-03-25T03:45:51;99417.13;;;13.23;59.07
3544;BME280;1786;52.870;9.578;2024-03-25T03:48:17;99430.31;;;12.85;59.96
3544;BME280;1786;52.870;9.578;2024-03-25T03:50:43;99432.09;;;12.94;59.86
3544;BME280;1786;52.870;9.578;2024-03-25T03:53:08;99432.63;;;13.08;59.61
3544;BME280;1786;52.870;9.578;2024-03-25T03:55:35;99432.25;;;12.83;59.68
3544;BME280;1786;52.870;9.578;2024-03-25T03:58:01;99442.00;;;12.92;59.83
3544;BME280;1786;52.870;9.578;2024-03-25T04:00:26;99437.94;;;13.08;59.70
3544;BME280;1786;52.870;9.578;2024-03-25T04:02:53;99437.81;;;13.19;59.21
3544;BME280;1786;52.870;9.578;2024-03-25T04:05:19;99435.84;;;13.21;59.39
3544;BME280;1786;52.870;9.578;2024-03-25T04:07:45;99435.56;;;13.44;58.95
3544;BME280;1786;52.870;9.578;2024-03-25T04:10:11;99448.81;;;13.24;59.35
3544;BME280;1786;52.870;9.578;2024-03-25T04:12:37;99449.25;;;13.29;59.31
3544;BME280;1786;52.870;9.578;2024-03-25T04:15:03;99456.25;;;13.11;59.64
3544;BME280;1786;52.870;9.578;2024-03-25T04:17:29;99454.00;;;12.96;59.80
3544;BME280;1786;52.870;9.578;2024-03-25T04:19:55;99449.97;;;12.92;60.27
3544;BME280;1786;52.870;9.578;2024-03-25T04:22:23;99453.47;;;12.93;60.57
3544;BME280;1786;52.870;9.578;2024-03-25T04:24:49;99457.34;;;13.28;59.94
3544;BME280;1786;52.870;9.578;2024-03-25T04:27:15;99454.69;;;13.28;59.54
3544;BME280;1786;52.870;9.578;2024-03-25T04:29:41;99460.47;;;13.70;59.16
3544;BME280;1786;52.870;9.578;2024-03-25T04:32:06;99460.88;;;14.03;58.01
3544;BME280;1786;52.870;9.578;2024-03-25T04:34:32;99465.47;;;14.11;58.09
3544;BME280;1786;52.870;9.578;2024-03-25T04:36:59;99458.91;;;14.33;57.52
3544;BME280;1786;52.870;9.578;2024-03-25T04:39:25;99459.69;;;14.43;56.78
3544;BME280;1786;52.870;9.578;2024-03-25T04:41:51;99463.22;;;14.34;56.87
3544;BME280;1786;52.870;9.578;2024-03-25T04:44:16;99461.38;;;14.44;56.51
3544;BME280;1786;52.870;9.578;2024-03-25T04:46:43;99463.84;;;14.55;55.64
3544;BME280;1786;52.870;9.578;2024-03-25T04:49:10;99469.06;;;14.19;56.48
3544;BME280;1786;52.870;9.578;2024-03-25T04:51:36;99466.50;;;14.00;57.12
3544;BME280;1786;52.870;9.578;2024-03-25T04:54:02;99472.13;;;14.24;56.85
3544;BME280;1786;52.870;9.578;2024-03-25T04:56:27;99480.94;;;14.43;56.33
3544;BME280;1786;52.870;9.578;2024-03-25T04:58:53;99489.72;;;14.25;57.05
3544;BME280;1786;52.870;9.578;2024-03-25T05:01:19;99496.13;;;14.33;56.79
3544;BME280;1786;52.870;9.578;2024-03-25T05:03:45;99486.19;;;14.35;57.37
3544;BME280;1786;52.870;9.578;2024-03-25T05:06:10;99494.25;;;14.15;57.50
3544;BME280;1786;52.870;9.578;2024-03-25T05:08:37;99495.44;;;14.31;57.70
3544;BME280;1786;52.870;9.578;2024-03-25T05:11:02;99490.06;;;14.13;58.03
3544;BME280;1786;52.870;9.578;2024-03-25T05:13:28;99495.13;;;14.34;57.50
3544;BME280;1786;52.870;9.578;2024-03-25T05:15:54;99497.25;;;14.58;57.07
3544;BME280;1786;52.870;9.578;2024-03-25T05:18:19;99501.31;;;14.62;57.05
3544;BME280;1786;52.870;9.578;2024-03-25T05:20:45;99502.59;;;14.76;56.73
3544;BME280;1786;52.870;9.578;2024-03-25T05:23:11;99507.91;;;14.20;58.13
3544;BME280;1786;52.870;9.578;2024-03-25T05:25:37;99504.03;;;14.42;57.63
3544;BME280;1786;52.870;9.578;2024-03-25T05:28:04;99508.28;;;13.98;57.35
3544;BME280;1786;52.870;9.578;2024-03-25T05:30:30;99506.19;;;13.64;57.28
3544;BME280;1786;52.870;9.578;2024-03-25T05:32:56;99503.22;;;13.67;58.27
3544;BME280;1786;52.870;9.578;2024-03-25T05:35:22;99509.97;;;14.09;57.75
3544;BME280;1786;52.870;9.578;2024-03-25T05:37:48;99512.16;;;14.41;56.83
3544;BME280;1786;52.870;9.578;2024-03-25T05:40:14;99512.72;;;14.44;57.23
3544;BME280;1786;52.870;9.578;2024-03-25T05:42:44;99511.69;;;14.55;56.99
3544;BME280;1786;52.870;9.578;2024-03-25T05:45:10;99513.53;;;14.45;57.58
3544;BME280;1786;52.870;9.578;2024-03-25T05:47:35;99509.78;;;14.38;57.56
3544;BME280;1786;52.870;9.578;2024-03-25T05:50:01;99515.25;;;14.64;57.81
3544;BME280;1786;52.870;9.578;2024-03-25T05:52:29;99520.34;;;14.57;57.59
3544;BME280;1786;52.870;9.578;2024-03-25T05:54:55;99521.66;;;14.71;57.47
3544;BME280;1786;52.870;9.578;2024-03-25T05:57:21;99520.53;;;14.74;57.27
3544;BME280;1786;52.870;9.578;2024-03-25T05:59:46;99519.41;;;14.94;56.71
3544;BME280;1786;52.870;9.578;2024-03-25T06:02:12;99522.06;;;14.94;56.81
3544;BME280;1786;52.870;9.578;2024-03-25T06:04:38;99534.31;;;15.05;56.95
3544;BME280;1786;52.870;9.578;2024-03-25T06:07:03;99530.66;;;15.06;57.33
3544;BME280;1786;52.870;9.578;2024-03-25T06:09:29;99535.59;;;14.83;57.36
3544;BME280;1786;52.870;9.578;2024-03-25T06:11:56;99539.06;;;14.65;58.03
3544;BME280;1786;52.870;9.578;2024-03-25T06:14:22;99535.53;;;14.92;57.92
3544;BME280;1786;52.870;9.578;2024-03-25T06:16:48;99534.22;;;14.97;57.35
3544;BME280;1786;52.870;9.578;2024-03-25T06:19:14;99540.00;;;14.74;58.39
3544;BME280;1786;52.870;9.578;2024-03-25T06:21:40;99537.91;;;14.68;58.21
3544;BME280;1786;52.870;9.578;2024-03-25T06:24:06;99543.69;;;14.63;58.24
3544;BME280;1786;52.870;9.578;2024-03-25T06:26:32;99550.16;;;14.79;58.19
3544;BME280;1786;52.870;9.578;2024-03-25T06:28:58;99549.75;;;14.56;59.04
3544;BME280;1786;52.870;9.578;2024-03-25T06:31:23;99555.59;;;14.87;58.05
3544;BME280;1786;52.870;9.578;2024-03-25T06:34:08;99554.34;;;14.81;58.07
3544;BME280;1786;52.870;9.578;2024-03-25T06:36:41;99547.44;;;14.88;58.26
3544;BME280;1786;52.870;9.578;2024-03-25T06:39:07;99547.31;;;14.90;58.08
3544;BME280;1786;52.870;9.578;2024-03-25T06:41:32;99560.16;;;14.95;58.21
3544;BME280;1786;52.870;9.578;2024-03-25T06:43:58;99565.84;;;14.82;58.40
3544;BME280;1786;52.870;9.578;2024-03-25T06:46:24;99572.25;;;15.25;57.64
3544;BME280;1786;52.870;9.578;2024-03-25T06:48:49;99575.09;;;14.78;57.75
3544;BME280;1786;52.870;9.578;2024-03-25T06:51:16;99572.38;;;15.05;57.32
3544;BME280;1786;52.870;9.578;2024-03-25T06:53:42;99582.84;;;14.89;57.85
3544;BME280;1786;52.870;9.578;2024-03-25T06:56:09;99577.09;;;15.11;57.21
3544;BME280;1786;52.870;9.578;2024-03-25T06:58:34;99586.44;;;14.98;57.39
3544;BME280;1786;52.870;9.578;2024-03-25T07:01:07;99589.34;;;15.22;57.28
3544;BME280;1786;52.870;9.578;2024-03-25T07:03:34;99585.63;;;14.97;57.77
3544;BME280;1786;52.870;9.578;2024-03-25T07:06:00;99596.06;;;14.81;57.95
3544;BME280;1786;52.870;9.578;2024-03-25T07:08:29;99595.94;;;14.45;58.33
3544;BME280;1786;52.870;9.578;2024-03-25T07:10:56;99590.75;;;14.81;57.96
3544;BME280;1786;52.870;9.578;2024-03-25T07:13:21;99593.22;;;14.64;58.23
3544;BME280;1786;52.870;9.578;2024-03-25T07:15:49;99594.88;;;14.28;58.44
3544;BME280;1786;52.870;9.578;2024-03-25T07:18:15;99597.88;;;14.43;58.98
3544;BME280;1786;52.870;9.578;2024-03-25T07:20:42;99603.84;;;14.92;57.56
3544;BME280;1786;52.870;9.578;2024-03-25T07:23:09;99607.53;;;14.81;57.64
3544;BME280;1786;52.870;9.578;2024-03-25T07:25:34;99606.31;;;14.28;58.47
3544;BME280;1786;52.870;9.578;2024-03-25T07:28:01;99599.28;;;14.57;58.56
3544;BME280;1786;52.870;9.578;2024-03-25T07:30:27;99600.50;;;14.90;57.27
3544;BME280;1786;52.870;9.578;2024-03-25T07:32:57;99600.09;;;14.85;57.52
3544;BME280;1786;52.870;9.578;2024-03-25T07:35:25;99602.66;;;15.40;57.00
3544;BME280;1786;52.870;9.578;2024-03-25T07:37:51;99603.81;;;15.38;58.03
3544;BME280;1786;52.870;9.578;2024-03-25T07:40:21;99608.19;;;15.47;56.80
3544;BME280;1786;52.870;9.578;2024-03-25T07:42:47;99614.44;;;15.91;56.11
3544;BME280;1786;52.870;9.578;2024-03-25T07:45:14;99613.34;;;16.28;55.38
3544;BME280;1786;52.870;9.578;2024-03-25T07:47:41;99614.63;;;16.24;55.71
3544;BME280;1786;52.870;9.578;2024-03-25T07:50:07;99611.97;;;16.24;55.44
3544;BME280;1786;52.870;9.578;2024-03-25T07:52:34;99614.00;;;15.42;56.18
3544;BME280;1786;52.870;9.578;2024-03-25T07:55:06;99624.56;;;15.70;55.26
3544;BME280;1786;52.870;9.578;2024-03-25T07:57:32;99636.53;;;16.36;54.34
3544;BME280;1786;52.870;9.578;2024-03-25T07:59:58;99634.66;;;16.62;53.61
3544;BME280;1786;52.870;9.578;2024-03-25T08:02:24;99636.84;;;16.67;54.24
3544;BME280;1786;52.870;9.578;2024-03-25T08:04:50;99637.25;;;16.46;54.02
3544;BME280;1786;52.870;9.578;2024-03-25T08:07:15;99641.97;;;16.78;53.76
3544;BME280;1786;52.870;9.578;2024-03-25T08:09:42;99644.47;;;16.54;54.81
3544;BME280;1786;52.870;9.578;2024-03-25T08:12:08;99647.31;;;16.86;53.18
3544;BME280;1786;52.870;9.578;2024-03-25T08:14:34;99653.38;;;17.05;53.27
3544;BME280;1786;52.870;9.578;2024-03-25T08:17:00;99653.56;;;16.77;52.93
3544;BME280;1786;52.870;9.578;2024-03-25T08:19:26;99660.25;;;16.73;53.42
3544;BME280;1786;52.870;9.578;2024-03-25T08:21:51;99663.03;;;16.98;53.42
3544;BME280;1786;52.870;9.578;2024-03-25T08:24:20;99658.72;;;17.13;52.11
3544;BME280;1786;52.870;9.578;2024-03-25T08:26:46;99662.31;;;16.53;53.14
3544;BME280;1786;52.870;9.578;2024-03-25T08:29:11;99656.06;;;16.44;52.20
3544;BME280;1786;52.870;9.578;2024-03-25T08:31:37;99658.00;;;16.95;52.24
3544;BME280;1786;52.870;9.578;2024-03-25T08:34:03;99662.88;;;16.99;51.74
3544;BME280;1786;52.870;9.578;2024-03-25T08:36:29;99669.38;;;17.05;52.00
3544;BME280;1786;52.870;9.578;2024-03-25T08:38:54;99663.69;;;16.92;51.36
3544;BME280;1786;52.870;9.578;2024-03-25T08:41:20;99667.31;;;17.33;51.36
3544;BME280;1786;52.870;9.578;2024-03-25T08:43:47;99670.44;;;17.28;51.37
3544;BME280;1786;52.870;9.578;2024-03-25T08:46:12;99674.69;;;17.47;50.85
3544;BME280;1786;52.870;9.578;2024-03-25T08:48:38;99674.47;;;17.33;51.18
3544;BME280;1786;52.870;9.578;2024-03-25T08:51:04;99673.84;;;17.47;50.42
3544;BME280;1786;52.870;9.578;2024-03-25T08:53:30;99672.50;;;17.51;51.44
3544;BME280;1786;52.870;9.578;2024-03-25T08:55:55;99674.19;;;17.44;50.88
3544;BME280;1786;52.870;9.578;2024-03-25T08:58:22;99675.25;;;18.00;49.85
3544;BME280;1786;52.870;9.578;2024-03-25T09:00:48;99672.88;;;18.22;51.16
3544;BME280;1786;52.870;9.578;2024-03-25T09:03:13;99683.13;;;18.90;50.83
3544;BME280;1786;52.870;9.578;2024-03-25T09:05:39;99678.94;;;19.50;48.40
3544;BME280;1786;52.870;9.578;2024-03-25T09:08:08;99680.31;;;19.77;47.25
3544;BME280;1786;52.870;9.578;2024-03-25T09:10:37;99688.59;;;20.28;47.44
3544;BME280;1786;52.870;9.578;2024-03-25T09:13:21;99687.53;;;20.52;45.83
3544;BME280;1786;52.870;9.578;2024-03-25T09:15:49;99683.63;;;20.40;44.12
3544;BME280;1786;52.870;9.578;2024-03-25T09:18:15;99691.34;;;20.73;43.26
3544;BME280;1786;52.870;9.578;2024-03-25T09:20:40;99689.63;;;20.42;45.55
3544;BME280;1786;52.870;9.578;2024-03-25T09:23:06;99682.53;;;20.94;44.03
3544;BME280;1786;52.870;9.578;2024-03-25T09:25:33;99688.09;;;21.22;43.78
3544;BME280;1786;52.870;9.578;2024-03-25T09:27:58;99686.94;;;21.16;42.34
3544;BME280;1786;52.870;9.578;2024-03-25T09:30:24;99687.56;;;20.97;42.03
3544;BME280;1786;52.870;9.578;2024-03-25T09:32:50;99689.09;;;21.06;41.80
3544;BME280;1786;52.870;9.578;2024-03-25T09:35:16;99689.06;;;21.36;42.74
3544;BME280;1786;52.870;9.578;2024-03-25T09:37:41;99682.63;;;21.52;41.76
3544;BME280;1786;52.870;9.578;2024-03-25T09:40:08;99696.13;;;21.22;40.53
3544;BME280;1786;52.870;9.578;2024-03-25T09:42:48;99691.44;;;21.09;39.00
3544;BME280;1786;52.870;9.578;2024-03-25T09:45:17;99687.47;;;20.61;40.84
3544;BME280;1786;52.870;9.578;2024-03-25T09:47:47;99690.22;;;20.52;41.77
3544;BME280;1786;52.870;9.578;2024-03-25T09:50:14;99684.75;;;20.08;41.72
3544;BME280;1786;52.870;9.578;2024-03-25T09:52:49;99687.47;;;20.23;42.80
3544;BME280;1786;52.870;9.578;2024-03-25T09:55:15;99682.31;;;20.21;41.18
3544;BME280;1786;52.870;9.578;2024-03-25T09:57:43;99684.97;;;19.83;41.83
3544;BME280;1786;52.870;9.578;2024-03-25T10:00:09;99689.00;;;19.79;42.26
3544;BME280;1786;52.870;9.578;2024-03-25T10:02:41;99697.06;;;19.79;42.08
3544;BME280;1786;52.870;9.578;2024-03-25T10:05:07;99695.72;;;19.75;42.04
3544;BME280;1786;52.870;9.578;2024-03-25T10:07:33;99698.47;;;19.67;42.19
3544;BME280;1786;52.870;9.578;2024-03-25T10:10:06;99697.84;;;19.57;41.91
3544;BME280;1786;52.870;9.578;2024-03-25T10:12:32;99691.53;;;19.50;41.71
3544;BME280;1786;52.870;9.578;2024-03-25T10:14:59;99696.16;;;19.33;42.33
3544;BME280;1786;52.870;9.578;2024-03-25T10:17:25;99703.88;;;19.28;42.91
3544;BME280;1786;52.870;9.578;2024-03-25T10:19:53;99702.09;;;19.12;44.13
3544;BME280;1786;52.870;9.578;2024-03-25T10:22:19;99700.78;;;18.44;45.46
3544;BME280;1786;52.870;9.578;2024-03-25T10:24:47;99704.81;;;18.15;45.82
3544;BME280;1786;52.870;9.578;2024-03-25T10:27:23;99689.66;;;17.24;46.46
3544;BME280;1786;52.870;9.578;2024-03-25T10:29:53;99697.16;;;17.28;47.24
3544;BME280;1786;52.870;9.578;2024-03-25T10:32:20;99700.25;;;17.07;48.90
3544;BME280;1786;52.870;9.578;2024-03-25T10:34:46;99699.50;;;16.81;47.84
3544;BME280;1786;52.870;9.578;2024-03-25T10:37:13;99697.47;;;16.83;47.66
3544;BME280;1786;52.870;9.578;2024-03-25T10:39:48;99700.91;;;17.44;47.42
3544;BME280;1786;52.870;9.578;2024-03-25T10:42:18;99699.59;;;17.64;47.25
3544;BME280;1786;52.870;9.578;2024-03-25T10:44:44;99697.06;;;17.71;47.33
3544;BME280;1786;52.870;9.578;2024-03-25T10:47:16;99703.44;;;18.44;47.33
3544;BME280;1786;52.870;9.578;2024-03-25T10:49:56;99690.78;;;19.01;45.61
3544;BME280;1786;52.870;9.578;2024-03-25T10:52:26;99700.31;;;19.66;45.20
3544;BME280;1786;52.870;9.578;2024-03-25T10:54:54;99702.41;;;19.79;44.82
3544;BME280;1786;52.870;9.578;2024-03-25T10:57:21;99701.06;;;19.83;44.40
3544;BME280;1786;52.870;9.578;2024-03-25T10:59:48;99700.91;;;20.00;43.87
3544;BME280;1786;52.870;9.578;2024-03-25T11:02:14;99713.91;;;19.88;43.18
3544;BME280;1786;52.870;9.578;2024-03-25T11:04:42;99705.13;;;19.48;44.86
3544;BME280;1786;52.870;9.578;2024-03-25T11:07:11;99708.16;;;19.06;45.70
3544;BME280;1786;52.870;9.578;2024-03-25T11:09:38;99706.25;;;18.67;46.23
3544;BME280;1786;52.870;9.578;2024-03-25T11:12:05;99712.78;;;18.72;47.36
3544;BME280;1786;52.870;9.578;2024-03-25T11:14:31;99713.59;;;18.73;48.38
3544;BME280;1786;52.870;9.578;2024-03-25T11:17:01;99703.06;;;18.79;47.87
3544;BME280;1786;52.870;9.578;2024-03-25T11:19:29;99698.56;;;18.80;46.92
3544;BME280;1786;52.870;9.578;2024-03-25T11:22:07;99705.81;;;19.11;45.33
3544;BME280;1786;52.870;9.578;2024-03-25T11:24:34;99705.94;;;18.53;45.63
3544;BME280;1786;52.870;9.578;2024-03-25T11:27:02;99700.66;;;19.01;45.38
3544;BME280;1786;52.870;9.578;2024-03-25T11:29:28;99698.34;;;18.90;45.94
3544;BME280;1786;52.870;9.578;2024-03-25T11:31:59;99705.78;;;18.47;46.67
3544;BME280;1786;52.870;9.578;2024-03-25T11:34:25;99701.25;;;18.55;47.83
3544;BME280;1786;52.870;9.578;2024-03-25T11:36:51;99690.09;;;18.99;48.00
3544;BME280;1786;52.870;9.578;2024-03-25T11:39:22;99688.81;;;18.87;45.91
3544;BME280;1786;52.870;9.578;2024-03-25T11:41:47;99686.59;;;19.38;46.46
3544;BME280;1786;52.870;9.578;2024-03-25T11:44:13;99686.81;;;19.52;45.29
3544;BME280;1786;52.870;9.578;2024-03-25T11:46:39;99688.53;;;19.99;44.76
3544;BME280;1786;52.870;9.578;2024-03-25T11:49:06;99688.44;;;19.61;43.46
3544;BME280;1786;52.870;9.578;2024-03-25T11:51:35;99685.69;;;20.15;44.14
3544;BME280;1786;52.870;9.578;2024-03-25T11:54:05;99677.25;;;20.41;42.59
3544;BME280;1786;52.870;9.578;2024-03-25T11:56:31;99687.00;;;20.87;41.71
3544;BME280;1786;52.870;9.578;2024-03-25T11:58:59;99678.34;;;21.21;41.43
3544;BME280;1786;52.870;9.578;2024-03-25T12:01:26;99678.94;;;21.53;41.38
3544;BME280;1786;52.870;9.578;2024-03-25T12:03:52;99684.09;;;21.54;40.96
3544;BME280;1786;52.870;9.578;2024-03-25T12:06:18;99671.59;;;21.10;41.11
3544;BME280;1786;52.870;9.578;2024-03-25T12:08:43;99669.53;;;21.42;40.98
3544;BME280;1786;52.870;9.578;2024-03-25T12:11:28;99674.97;;;21.34;41.37
3544;BME280;1786;52.870;9.578;2024-03-25T12:13:54;99673.69;;;21.30;42.12
3544;BME280;1786;52.870;9.578;2024-03-25T12:16:20;99672.81;;;20.93;40.95
3544;BME280;1786;52.870;9.578;2024-03-25T12:18:46;99670.56;;;21.11;40.73
3544;BME280;1786;52.870;9.578;2024-03-25T12:21:12;99666.22;;;21.10;40.12
3544;BME280;1786;52.870;9.578;2024-03-25T12:23:37;99665.06;;;21.34;40.98
3544;BME280;1786;52.870;9.578;2024-03-25T12:26:04;99662.31;;;21.28;40.28
3544;BME280;1786;52.870;9.578;2024-03-25T12:28:31;99654.41;;;20.60;41.77
3544;BME280;1786;52.870;9.578;2024-03-25T12:31:01;99659.50;;;20.85;41.77
3544;BME280;1786;52.870;9.578;2024-03-25T12:33:26;99663.13;;;20.09;41.67
3544;BME280;1786;52.870;9.578;2024-03-25T12:35:52;99661.28;;;20.10;41.79
3544;BME280;1786;52.870;9.578;2024-03-25T12:38:28;99659.78;;;20.60;41.23
3544;BME280;1786;52.870;9.578;2024-03-25T12:41:04;99653.97;;;20.71;40.73
3544;BME280;1786;52.870;9.578;2024-03-25T12:43:34;99653.16;;;21.22;41.22
3544;BME280;1786;52.870;9.578;2024-03-25T12:46:01;99652.53;;;21.85;41.14
3544;BME280;1786;52.870;9.578;2024-03-25T12:48:29;99649.28;;;21.89;37.78
3544;BME280;1786;52.870;9.578;2024-03-25T12:50:55;99651.69;;;22.62;38.33
3544;BME280;1786;52.870;9.578;2024-03-25T12:53:21;99643.50;;;22.77;37.85
3544;BME280;1786;52.870;9.578;2024-03-25T12:55:47;99650.06;;;22.61;38.62
3544;BME280;1786;52.870;9.578;2024-03-25T12:58:13;99646.69;;;22.94;39.70
3544;BME280;1786;52.870;9.578;2024-03-25T13:00:39;99640.56;;;23.13;37.78
3544;BME280;1786;52.870;9.578;2024-03-25T13:03:07;99633.31;;;22.72;37.30
3544;BME280;1786;52.870;9.578;2024-03-25T13:05:34;99630.56;;;23.00;36.53
3544;BME280;1786;52.870;9.578;2024-03-25T13:08:00;99645.53;;;22.68;36.78
3544;BME280;1786;52.870;9.578;2024-03-25T13:10:27;99641.88;;;22.47;37.87
3544;BME280;1786;52.870;9.578;2024-03-25T13:12:53;99643.47;;;22.35;38.55
3544;BME280;1786;52.870;9.578;2024-03-25T13:15:18;99643.31;;;22.15;38.15
3544;BME280;1786;52.870;9.578;2024-03-25T13:17:44;99646.97;;;22.08;38.74
3544;BME280;1786;52.870;9.578;2024-03-25T13:20:10;99641.97;;;22.04;38.28